Time;durP1;ratioP1;P1;durP2;ratioP2;P2;SDS_P1;SDS_P2;PMS_P1;PMS_P2;Temp;Humidity;BMP_temperature;BMP_pressure;BME280_temperature;BME280_humidity;BME280_pressure;Samples;Min_cycle;Max_cycle;Signal;HPM_P1;HPM_P2
2023/03/11 00:00:44;;;;;;;4.70;4.30;;;2.90;99.90;;;;;;5054970;28;20182;-78
2023/03/11 00:06:45;;;;;;;5.07;4.03;;;2.90;99.90;;;;;;5056104;28;20248;-78
2023/03/11 00:09:11;;;;;;;4.57;4.17;;;2.90;99.90;;;;;;5054922;28;20177;-78
2023/03/11 00:11:36;;;;;;;15.87;9.23;;;2.80;99.90;;;;;;5055068;28;20178;-78
2023/03/11 00:14:02;;;;;;;5.67;5.10;;;2.80;99.90;;;;;;5054789;28;20175;-78
2023/03/11 00:16:28;;;;;;;4.30;3.90;;;2.70;99.90;;;;;;5054895;28;20194;-78
2023/03/11 00:18:53;;;;;;;5.10;4.60;;;2.80;99.90;;;;;;5054508;28;20194;-78
2023/03/11 00:21:19;;;;;;;5.87;5.03;;;2.80;99.90;;;;;;5055421;28;20170;-78
2023/03/11 00:23:45;;;;;;;4.80;4.40;;;2.80;99.90;;;;;;5056313;28;20174;-78
2023/03/11 00:26:11;;;;;;;5.37;4.87;;;2.90;99.90;;;;;;5055719;28;20186;-78
2023/03/11 00:28:37;;;;;;;4.37;4.07;;;2.80;99.90;;;;;;5056071;28;20189;-78
2023/03/11 00:31:03;;;;;;;4.60;4.07;;;2.80;99.90;;;;;;5055297;28;20274;-78
2023/03/11 00:33:28;;;;;;;4.03;3.73;;;2.80;99.90;;;;;;5054601;28;20197;-78
2023/03/11 00:35:54;;;;;;;4.33;3.93;;;2.70;99.90;;;;;;5054341;28;20189;-78
2023/03/11 00:38:19;;;;;;;4.40;4.00;;;2.70;99.90;;;;;;5054228;28;20582;-78
2023/03/11 00:40:46;;;;;;;4.53;3.83;;;2.70;99.90;;;;;;5055496;28;20241;-78
2023/03/11 00:43:13;;;;;;;4.43;4.03;;;2.70;99.90;;;;;;5054563;28;20182;-78
2023/03/11 00:45:39;;;;;;;4.67;4.20;;;2.70;99.90;;;;;;5055513;28;20186;-78
2023/03/11 00:48:05;;;;;;;4.43;4.03;;;2.70;99.90;;;;;;5054494;28;20273;-78
2023/03/11 00:50:33;;;;;;;4.20;3.80;;;2.80;99.90;;;;;;5054437;28;20186;-78
2023/03/11 00:52:59;;;;;;;3.87;3.57;;;2.90;99.90;;;;;;5054311;28;20225;-78
2023/03/11 00:55:30;;;;;;;4.30;4.00;;;2.80;99.90;;;;;;5055882;28;20190;-78
2023/03/11 00:57:59;;;;;;;4.37;3.70;;;2.80;99.90;;;;;;5054114;28;20568;-78
2023/03/11 01:00:26;;;;;;;3.97;3.67;;;2.80;99.90;;;;;;5053936;28;20182;-78
2023/03/11 01:02:54;;;;;;;3.53;3.30;;;2.80;99.90;;;;;;5053988;28;20178;-78
2023/03/11 01:05:22;;;;;;;3.20;3.00;;;2.80;99.90;;;;;;5053830;28;20261;-78
2023/03/11 01:07:47;;;;;;;3.33;3.10;;;2.80;99.90;;;;;;5054804;28;20202;-78
2023/03/11 01:10:14;;;;;;;3.27;3.07;;;2.70;99.90;;;;;;5054708;28;20193;-78
2023/03/11 01:12:39;;;;;;;3.27;3.07;;;2.70;99.90;;;;;;5053729;28;20182;-78
2023/03/11 01:15:06;;;;;;;2.80;2.63;;;2.70;99.90;;;;;;5053666;28;20181;-78
2023/03/11 01:17:32;;;;;;;2.90;2.70;;;2.70;99.90;;;;;;5053765;28;20209;-78
2023/03/11 01:19:57;;;;;;;3.13;2.93;;;2.60;99.90;;;;;;5054366;28;20178;-78
2023/03/11 01:22:23;;;;;;;2.70;2.50;;;2.70;99.90;;;;;;5054706;28;20182;-78
2023/03/11 01:24:49;;;;;;;2.90;2.70;;;2.70;99.90;;;;;;5053483;28;20186;-78
2023/03/11 01:27:14;;;;;;;2.73;2.57;;;2.70;99.90;;;;;;5053349;28;20289;-78
2023/03/11 01:29:40;;;;;;;2.90;2.70;;;2.60;99.90;;;;;;5053276;28;20205;-78
2023/03/11 01:32:06;;;;;;;3.20;2.90;;;2.60;99.90;;;;;;5053978;28;20182;-78
2023/03/11 01:34:34;;;;;;;2.70;2.53;;;2.60;99.90;;;;;;5053485;28;20637;-78
2023/03/11 01:37:01;;;;;;;2.80;2.60;;;2.60;99.90;;;;;;5054231;28;20198;-78
2023/03/11 01:39:26;;;;;;;2.63;2.50;;;2.60;99.90;;;;;;5053136;28;20182;-78
2023/03/11 01:41:52;;;;;;;2.50;2.40;;;2.60;99.90;;;;;;5054603;28;20181;-78
2023/03/11 01:44:18;;;;;;;2.47;2.27;;;2.70;99.90;;;;;;5053463;28;20184;-78
2023/03/11 01:46:52;;;;;;;2.10;2.00;;;2.80;99.90;;;;;;5053102;28;20194;-78
2023/03/11 01:49:19;;;;;;;2.27;2.10;;;2.70;99.90;;;;;;5053265;28;20189;-78
2023/03/11 01:51:50;;;;;;;2.00;1.90;;;2.70;99.90;;;;;;5054412;28;20179;-78
2023/03/11 01:54:36;;;;;;;2.43;2.23;;;2.70;99.90;;;;;;5052944;28;20319;-78
2023/03/11 01:57:06;;;;;;;2.00;1.90;;;2.70;99.90;;;;;;5053563;28;20198;-78
2023/03/11 01:59:36;;;;;;;3.20;2.27;;;2.70;99.90;;;;;;5053060;28;20679;-78
2023/03/11 07:59:37;;;;;;;2.30;2.20;;;2.10;99.90;;;;;;5540549;23;20349;-80
2023/03/11 08:02:03;;;;;;;2.50;2.30;;;2.20;99.90;;;;;;4938361;29;20272;-77
2023/03/11 08:04:29;;;;;;;2.10;1.87;;;2.30;99.90;;;;;;4938736;29;20170;-77
2023/03/11 08:06:55;;;;;;;3.10;1.27;;;2.40;99.90;;;;;;4938910;29;20226;-77
2023/03/11 08:09:21;;;;;;;1.60;1.50;;;2.50;99.90;;;;;;4938188;29;20197;-80
2023/03/11 08:12:06;;;;;;;2.47;2.17;;;2.40;99.90;;;;;;4939135;29;20167;-77
2023/03/11 08:14:35;;;;;;;2.67;1.80;;;2.40;99.90;;;;;;4938824;29;20302;-77
2023/03/11 08:17:27;;;;;;;1.57;1.20;;;2.30;99.90;;;;;;4937677;29;20206;-77
2023/03/11 08:19:53;;;;;;;1.30;1.20;;;2.30;99.90;;;;;;4938443;29;20190;-78
2023/03/11 08:22:18;;;;;;;1.90;1.80;;;2.40;99.90;;;;;;4937552;29;20197;-78
2023/03/11 08:24:44;;;;;;;1.87;1.63;;;2.50;99.90;;;;;;4937834;29;20182;-78
2023/03/11 08:27:11;;;;;;;1.67;1.57;;;2.70;99.90;;;;;;4937919;29;20293;-78
2023/03/11 08:29:36;;;;;;;1.70;1.60;;;2.90;99.90;;;;;;4938722;29;20211;-81
2023/03/11 08:32:02;;;;;;;2.50;1.50;;;3.10;99.90;;;;;;4937399;29;20277;-78
2023/03/11 08:34:28;;;;;;;1.40;1.30;;;3.30;99.90;;;;;;4937942;29;20190;-78
2023/03/11 08:36:54;;;;;;;2.17;1.33;;;3.50;99.90;;;;;;4937133;29;20202;-78
2023/03/11 08:39:19;;;;;;;2.03;1.40;;;3.60;99.90;;;;;;4937127;29;20210;-78
2023/03/11 08:45:08;;;;;;;3.07;1.47;;;3.60;99.90;;;;;;4938257;29;20225;-77
2023/03/11 08:47:35;;;;;;;2.30;1.60;;;3.40;99.90;;;;;;4936987;29;20194;-77
2023/03/11 08:50:01;;;;;;;1.80;1.33;;;3.20;99.90;;;;;;4938348;29;20640;-77
2023/03/11 08:52:27;;;;;;;1.73;1.33;;;3.20;99.90;;;;;;4937495;29;20235;-78
2023/03/11 08:54:52;;;;;;;2.37;1.43;;;3.20;99.90;;;;;;4936920;29;20194;-78
2023/03/11 08:57:18;;;;;;;1.30;1.17;;;3.10;99.90;;;;;;4936627;29;20261;-78
2023/03/11 08:59:44;;;;;;;1.43;1.33;;;3.10;99.90;;;;;;4937044;29;20194;-77
2023/03/11 09:02:10;;;;;;;2.03;1.20;;;3.10;99.90;;;;;;4937952;29;20183;-77
2023/03/11 09:04:36;;;;;;;1.90;1.07;;;3.20;99.90;;;;;;4937035;29;20199;-77
2023/03/11 09:07:01;;;;;;;1.73;1.30;;;3.10;99.90;;;;;;4936631;29;20202;-77
2023/03/11 09:09:27;;;;;;;2.97;1.30;;;3.00;99.90;;;;;;4937773;29;20245;-77
2023/03/11 09:11:53;;;;;;;2.20;2.00;;;3.00;99.90;;;;;;4936608;29;20194;-77
2023/03/11 09:14:18;;;;;;;2.87;1.43;;;3.00;99.90;;;;;;4936599;29;20206;-77
2023/03/11 09:16:44;;;;;;;2.13;1.53;;;3.10;99.90;;;;;;4937580;29;20265;-77
2023/03/11 09:19:10;;;;;;;3.57;1.60;;;3.10;99.90;;;;;;4936503;29;20210;-77
2023/03/11 09:21:36;;;;;;;5.93;3.83;;;3.10;99.90;;;;;;4936978;29;20187;-77
2023/03/11 09:24:03;;;;;;;9.00;3.00;;;2.90;99.90;;;;;;4936900;29;20189;-78
2023/03/11 09:26:30;;;;;;;9.57;5.97;;;3.10;99.90;;;;;;4936266;29;20206;-77
2023/03/11 09:28:56;;;;;;;3.47;1.93;;;3.20;99.90;;;;;;4936404;29;20537;-79
2023/03/11 09:35:25;;;;;;;5.47;3.10;;;3.30;99.90;;;;;;4937501;29;20198;-81
2023/03/11 09:37:50;;;;;;;3.97;3.60;;;3.40;99.90;;;;;;4937168;29;20209;-77
2023/03/11 09:43:44;;;;;;;9.77;7.83;;;3.60;99.90;;;;;;4937302;29;20201;-77
2023/03/11 09:46:43;;;;;;;4.00;3.20;;;3.80;99.20;;;;;;4936097;29;20316;-77
2023/03/11 09:49:36;;;;;;;5.33;2.70;;;3.90;99.50;;;;;;4936095;29;20178;-77
2023/03/11 09:52:14;;;;;;;4.13;2.00;;;4.00;98.80;;;;;;4936799;29;20186;-77
2023/03/11 09:54:49;;;;;;;2.87;1.93;;;4.10;98.90;;;;;;4937546;29;20730;-77
2023/03/11 09:57:36;;;;;;;2.47;1.73;;;4.20;98.80;;;;;;4937294;29;20201;-78
2023/03/11 10:00:05;;;;;;;5.50;2.20;;;4.30;99.00;;;;;;4937084;29;20258;-77
2023/03/11 10:02:31;;;;;;;5.73;2.07;;;4.30;99.10;;;;;;4936092;29;20200;-78
2023/03/11 10:05:08;;;;;;;5.20;1.80;;;4.30;99.20;;;;;;4935822;29;20700;-78
2023/03/11 10:07:40;;;;;;;2.77;1.73;;;4.40;98.80;;;;;;4935632;29;20213;-78
2023/03/11 10:10:10;;;;;;;2.57;1.90;;;4.20;97.20;;;;;;4936948;29;20182;-77
2023/03/11 10:13:18;;;;;;;3.73;1.63;;;3.90;96.90;;;;;;4936617;29;20197;-78
2023/03/11 10:16:07;;;;;;;3.30;1.30;;;3.70;97.30;;;;;;4936893;29;20257;-78
2023/03/11 10:18:48;;;;;;;1.40;1.30;;;3.40;98.50;;;;;;4936839;29;20687;-77
2023/03/11 10:21:41;;;;;;;2.50;1.40;;;3.20;96.30;;;;;;4936601;29;20177;-78
2023/03/11 10:27:34;;;;;;;3.67;1.70;;;2.90;96.80;;;;;;4936442;29;20202;-77
2023/03/11 10:30:16;;;;;;;3.80;1.57;;;2.80;97.80;;;;;;4935364;29;20178;-77
2023/03/11 10:32:50;;;;;;;2.33;1.50;;;2.70;97.80;;;;;;4935259;29;20174;-76
2023/03/11 10:35:20;;;;;;;4.60;1.40;;;3.00;98.30;;;;;;4936069;29;20265;-76
2023/03/11 10:37:53;;;;;;;3.63;1.30;;;3.10;97.60;;;;;;4936162;29;20206;-76
2023/03/11 10:40:30;;;;;;;1.83;1.23;;;3.40;98.00;;;;;;4935149;29;20170;-77
2023/03/11 10:43:00;;;;;;;3.03;1.50;;;3.50;98.10;;;;;;4935165;29;20166;-77
2023/03/11 10:45:32;;;;;;;6.57;1.43;;;3.70;96.90;;;;;;4936865;29;20266;-77
2023/03/11 10:48:36;;;;;;;4.10;1.50;;;3.80;97.90;;;;;;4935879;29;20234;-76
2023/03/11 10:51:41;;;;;;;2.83;1.60;;;4.10;96.60;;;;;;4936551;29;20166;-76
2023/03/11 10:54:06;;;;;;;5.70;1.70;;;4.60;97.00;;;;;;4935240;29;20170;-78
2023/03/11 10:56:34;;;;;;;5.90;1.90;;;5.10;96.20;;;;;;4934910;29;20209;-77
2023/03/11 10:59:02;;;;;;;8.80;1.60;;;5.60;95.20;;;;;;4934614;29;20222;-77
2023/03/11 11:01:29;;;;;;;6.93;1.80;;;5.70;92.10;;;;;;4935464;29;20162;-77
2023/03/11 11:03:57;;;;;;;8.93;1.70;;;5.60;92.90;;;;;;4937030;29;20178;-77
2023/03/11 11:06:34;;;;;;;7.17;1.90;;;5.50;93.40;;;;;;4939432;29;20198;-77
2023/03/11 11:09:18;;;;;;;12.13;1.70;;;5.40;94.10;;;;;;4939710;29;20197;-77
2023/03/11 11:12:10;;;;;;;5.63;1.50;;;5.30;94.30;;;;;;4939636;29;20175;-77
2023/03/11 11:14:43;;;;;;;4.30;1.50;;;5.50;94.40;;;;;;4939224;29;20181;-77
2023/03/11 11:17:17;;;;;;;1.50;1.20;;;5.40;93.70;;;;;;4938886;29;20293;-77
2023/03/11 11:19:44;;;;;;;4.47;2.33;;;5.30;90.40;;;;;;4939548;29;20218;-77
2023/03/11 11:22:16;;;;;;;2.33;1.40;;;5.30;89.50;;;;;;4939883;29;20313;-83
2023/03/11 11:24:47;;;;;;;2.70;1.70;;;5.40;89.40;;;;;;4939849;29;20253;-77
2023/03/11 11:27:25;;;;;;;3.23;1.83;;;5.20;87.70;;;;;;4938406;29;20228;-76
2023/03/11 11:30:07;;;;;;;1.97;1.80;;;5.10;89.80;;;;;;4938461;29;20249;-77
2023/03/11 11:32:33;;;;;;;2.93;1.90;;;4.90;87.70;;;;;;4938452;29;20341;-77
2023/03/11 11:34:59;;;;;;;2.47;1.60;;;4.70;89.60;;;;;;4938270;29;20175;-77
2023/03/11 11:37:30;;;;;;;3.00;2.23;;;4.60;90.50;;;;;;4938467;29;20209;-77
2023/03/11 11:43:51;;;;;;;5.50;2.27;;;4.40;91.50;;;;;;4939611;29;20210;-77
2023/03/11 11:46:43;;;;;;;5.53;2.30;;;4.30;93.30;;;;;;4938091;29;20202;-77
2023/03/11 11:49:19;;;;;;;4.37;2.03;;;4.30;92.20;;;;;;4938181;29;20190;-77
2023/03/11 11:52:14;;;;;;;3.63;2.37;;;4.40;93.10;;;;;;4939120;29;20178;-77
2023/03/11 11:55:01;;;;;;;2.43;1.40;;;4.50;92.60;;;;;;4936799;29;20190;-77
2023/03/11 11:57:28;;;;;;;4.17;1.90;;;4.60;91.80;;;;;;4939121;29;20226;-76
2023/03/11 11:59:53;;;;;;;3.47;1.67;;;4.40;90.00;;;;;;4939047;29;20190;-76
2023/03/11 12:02:26;;;;;;;2.43;1.83;;;4.30;90.70;;;;;;4938222;29;20201;-76
2023/03/11 12:05:11;;;;;;;4.30;2.37;;;4.20;90.00;;;;;;4939322;29;20269;-76
2023/03/11 12:07:59;;;;;;;2.87;1.33;;;4.20;90.20;;;;;;4937772;29;20575;-76
2023/03/11 12:14:11;;;;;;;2.20;1.47;;;4.70;89.70;;;;;;4938953;29;20218;-76
2023/03/11 12:16:54;;;;;;;2.93;2.43;;;4.80;86.50;;;;;;4936832;29;20297;-76
2023/03/11 12:19:27;;;;;;;5.90;2.30;;;5.10;90.60;;;;;;4938752;29;20190;-76
2023/03/11 12:22:16;;;;;;;3.57;2.10;;;5.20;87.30;;;;;;4938773;29;20174;-76
2023/03/11 12:25:06;;;;;;;7.90;1.70;;;5.40;90.20;;;;;;4937536;29;20241;-76
2023/03/11 12:27:46;;;;;;;5.00;2.70;;;5.40;90.00;;;;;;4937190;29;20206;-77
2023/03/11 12:30:20;;;;;;;278.13;124.90;;;5.70;90.30;;;;;;4935347;29;20163;-76
2023/03/11 12:32:56;;;;;;;38.25;21.80;;;5.50;86.10;;;;;;4936606;29;20166;-77
2023/03/11 12:35:28;;;;;;;8.50;3.95;;;5.40;86.00;;;;;;4936770;29;20543;-77
2023/03/11 12:37:58;;;;;;;5.37;2.80;;;5.30;87.30;;;;;;4936672;29;20194;-77
2023/03/11 12:40:45;;;;;;;3.07;1.90;;;5.20;86.70;;;;;;4936961;29;20656;-77
2023/03/11 12:43:34;;;;;;;4.30;2.25;;;5.30;90.80;;;;;;4938073;29;20200;-77
2023/03/11 12:46:04;;;;;;;2.53;1.50;;;5.30;90.80;;;;;;4902328;29;20206;-77
2023/03/11 12:48:35;;;;;;;2.80;1.77;;;5.40;89.10;;;;;;4936984;29;20178;-77
2023/03/11 12:51:01;;;;;;;5.32;1.75;;;5.30;90.80;;;;;;4937901;29;20186;-77
2023/03/11 12:53:48;;;;;;;3.85;1.48;;;5.40;86.00;;;;;;4938198;29;20182;-77
2023/03/11 12:56:44;;;;;;;3.13;1.50;;;5.50;87.20;;;;;;4936925;29;20206;-77
2023/03/11 12:59:40;;;;;;;2.30;1.35;;;5.60;87.30;;;;;;4937078;29;20225;-77
2023/03/11 13:02:09;;;;;;;3.38;1.80;;;5.70;87.60;;;;;;4936910;29;20237;-77
2023/03/11 13:04:49;;;;;;;2.30;2.00;;;5.70;84.40;;;;;;4937955;29;20178;-77
2023/03/11 13:07:36;;;;;;;2.57;1.40;;;5.40;86.10;;;;;;4937795;29;20261;-77
2023/03/11 13:10:16;;;;;;;5.35;1.35;;;5.30;88.10;;;;;;4937925;29;20170;-77
2023/03/11 13:12:50;;;;;;;1.60;1.30;;;5.30;89.10;;;;;;4936600;29;20210;-77
2023/03/11 13:15:29;;;;;;;2.50;1.30;;;5.30;89.60;;;;;;4937731;29;20184;-77
2023/03/11 13:18:00;;;;;;;2.70;1.27;;;5.40;87.10;;;;;;4936456;29;20210;-77
2023/03/11 13:20:42;;;;;;;3.70;1.70;;;5.40;85.20;;;;;;4936748;29;20171;-77
2023/03/11 13:23:11;;;;;;;1.85;1.20;;;5.40;88.80;;;;;;4936661;29;20272;-77
2023/03/11 13:25:52;;;;;;;2.42;1.20;;;5.50;87.20;;;;;;4936534;29;20182;-77
2023/03/11 13:28:40;;;;;;;1.90;1.20;;;5.50;84.10;;;;;;4937513;29;20170;-77
2023/03/11 13:31:37;;;;;;;4.78;1.63;;;5.30;85.90;;;;;;4936220;29;20179;-77
2023/03/11 13:34:16;;;;;;;2.83;1.43;;;5.30;84.10;;;;;;4936178;29;20174;-77
2023/03/11 13:36:49;;;;;;;2.47;1.20;;;5.50;83.50;;;;;;4936677;29;20205;-77
2023/03/11 13:39:47;;;;;;;3.27;2.00;;;5.40;79.90;;;;;;4936084;29;20281;-77
2023/03/11 13:42:30;;;;;;;1.70;1.40;;;5.50;82.40;;;;;;4937582;29;20241;-77
2023/03/11 13:44:57;;;;;;;1.48;1.15;;;5.60;82.20;;;;;;4936027;29;20207;-77
2023/03/11 13:47:25;;;;;;;3.13;1.33;;;5.60;80.50;;;;;;4937147;29;20298;-77
2023/03/11 13:50:08;;;;;;;1.53;1.10;;;5.40;80.80;;;;;;4936082;29;20171;-77
2023/03/11 13:52:40;;;;;;;4.10;1.30;;;5.30;81.30;;;;;;4937044;29;20657;-77
2023/03/11 13:55:39;;;;;;;2.13;1.20;;;5.30;84.50;;;;;;4935812;29;20233;-77
2023/03/11 13:58:25;;;;;;;2.67;1.23;;;5.50;85.60;;;;;;4936064;29;20681;-77
2023/03/11 14:00:57;;;;;;;3.43;1.40;;;5.50;86.00;;;;;;4936205;29;20273;-77
2023/03/11 14:03:24;;;;;;;3.17;1.23;;;5.50;87.00;;;;;;4936266;29;20230;-77
2023/03/11 14:06:12;;;;;;;1.07;1.07;;;5.50;84.00;;;;;;4935540;29;20182;-77
2023/03/11 14:08:39;;;;;;;4.07;1.33;;;5.40;85.00;;;;;;4935560;29;20217;-77
2023/03/11 14:11:09;;;;;;;2.00;1.03;;;5.10;81.70;;;;;;4935734;29;20171;-77
2023/03/11 14:13:39;;;;;;;2.53;1.30;;;5.10;86.60;;;;;;4935865;29;20210;-77
2023/03/11 14:16:30;;;;;;;2.27;1.13;;;5.10;84.80;;;;;;4935786;29;20209;-77
2023/03/11 14:19:13;;;;;;;3.57;1.40;;;4.90;83.10;;;;;;4936349;29;20198;-78
2023/03/11 14:21:51;;;;;;;1.47;1.13;;;4.90;84.20;;;;;;4936672;29;20174;-78
2023/03/11 14:24:25;;;;;;;3.00;1.20;;;4.90;87.50;;;;;;4935379;29;20672;-78
2023/03/11 14:26:55;;;;;;;3.03;1.40;;;4.90;84.70;;;;;;4935375;29;20221;-77
2023/03/11 14:29:44;;;;;;;1.80;1.40;;;4.90;84.00;;;;;;4935553;29;20234;-77
2023/03/11 14:32:28;;;;;;;2.17;1.00;;;5.00;87.20;;;;;;4935759;29;20601;-77
2023/03/11 14:34:54;;;;;;;3.13;1.33;;;5.00;85.10;;;;;;4935367;29;20177;-78
2023/03/11 14:37:33;;;;;;;1.80;1.10;;;5.10;85.70;;;;;;4936362;29;20226;-78
2023/03/11 14:39:59;;;;;;;3.10;1.23;;;5.10;85.80;;;;;;4935119;29;20218;-78
2023/03/11 14:42:37;;;;;;;2.57;1.20;;;5.00;84.50;;;;;;4936565;29;20174;-78
2023/03/11 14:45:17;;;;;;;2.37;1.50;;;5.00;84.30;;;;;;4937228;29;20181;-78
2023/03/11 14:47:58;;;;;;;1.33;1.20;;;5.00;84.90;;;;;;4935368;29;20288;-78
2023/03/11 14:50:29;;;;;;;1.97;1.60;;;5.20;85.10;;;;;;4936782;29;20612;-78
2023/03/11 14:53:01;;;;;;;3.00;1.60;;;5.20;83.90;;;;;;4936299;29;20710;-78
2023/03/11 14:55:32;;;;;;;3.60;1.20;;;5.10;83.90;;;;;;4936338;29;20170;-78
2023/03/11 14:58:25;;;;;;;4.23;1.50;;;5.00;85.80;;;;;;4935467;29;20202;-78
2023/03/11 15:01:13;;;;;;;3.53;1.37;;;5.10;86.20;;;;;;4925109;29;20228;-78
2023/03/11 15:03:52;;;;;;;5.33;1.40;;;4.90;83.40;;;;;;4935925;29;20261;-78
2023/03/11 15:06:29;;;;;;;2.87;1.33;;;4.80;84.90;;;;;;4935107;29;20257;-78
2023/03/11 15:09:11;;;;;;;2.60;1.30;;;4.90;87.90;;;;;;4934953;29;20178;-78
2023/03/11 15:11:50;;;;;;;4.20;1.23;;;5.10;87.90;;;;;;4935653;29;20190;-78
2023/03/11 15:14:34;;;;;;;4.20;1.43;;;5.10;85.80;;;;;;4935629;29;20573;-77
2023/03/11 15:17:15;;;;;;;1.40;1.10;;;5.10;86.90;;;;;;4934673;29;20242;-77
2023/03/11 15:19:40;;;;;;;3.03;1.43;;;5.10;87.00;;;;;;4936137;29;20668;-77
2023/03/11 15:22:22;;;;;;;4.80;1.60;;;5.10;87.80;;;;;;4935523;29;20213;-77
2023/03/11 15:24:54;;;;;;;3.70;1.50;;;5.10;86.80;;;;;;4936223;29;20177;-77
2023/03/11 15:27:31;;;;;;;4.93;1.40;;;4.90;85.70;;;;;;4935528;29;20202;-77
2023/03/11 15:29:59;;;;;;;1.73;1.30;;;4.80;86.30;;;;;;4934819;29;20182;-77
2023/03/11 15:32:30;;;;;;;4.80;1.40;;;4.80;85.40;;;;;;4934889;29;20632;-77
2023/03/11 15:35:14;;;;;;;4.90;1.60;;;4.70;85.70;;;;;;4935401;29;20173;-77
2023/03/11 15:37:41;;;;;;;3.37;1.37;;;4.80;87.60;;;;;;4934815;29;20198;-77
2023/03/11 15:40:21;;;;;;;4.87;2.17;;;4.90;84.90;;;;;;4936091;29;20254;-77
2023/03/11 15:42:48;;;;;;;7.47;1.70;;;4.90;86.40;;;;;;4934853;29;20162;-76
2023/03/11 15:45:17;;;;;;;3.10;1.40;;;4.80;85.30;;;;;;4934591;29;20257;-76
2023/03/11 15:47:44;;;;;;;1.67;1.10;;;4.60;85.00;;;;;;4934881;29;20207;-76
2023/03/11 15:50:23;;;;;;;4.67;1.90;;;4.20;83.50;;;;;;4935421;29;20170;-76
2023/03/11 15:52:51;;;;;;;3.60;1.63;;;4.00;85.70;;;;;;4938982;29;20224;-76
2023/03/11 15:55:18;;;;;;;4.40;1.77;;;3.90;87.40;;;;;;4939465;29;20185;-76
2023/03/11 15:57:46;;;;;;;2.47;1.40;;;3.70;87.00;;;;;;4937723;29;20210;-76
2023/03/11 16:00:21;;;;;;;1.40;1.30;;;3.60;88.70;;;;;;4937957;29;20345;-76
2023/03/11 16:02:48;;;;;;;2.37;1.50;;;3.60;89.60;;;;;;4937941;29;20245;-76
2023/03/11 16:05:19;;;;;;;3.67;1.47;;;3.70;90.80;;;;;;4938731;29;20314;-76
2023/03/11 16:07:45;;;;;;;5.93;1.20;;;3.70;89.10;;;;;;4939220;29;20206;-76
2023/03/11 16:10:13;;;;;;;2.73;1.50;;;3.80;88.10;;;;;;4937733;29;20260;-76
2023/03/11 16:12:41;;;;;;;3.00;1.40;;;3.70;88.10;;;;;;4937558;29;20260;-76
2023/03/11 16:15:34;;;;;;;9.43;8.30;;;3.70;90.10;;;;;;4937828;29;20194;-76
2023/03/11 16:18:02;;;;;;;1.97;1.83;;;3.60;90.60;;;;;;4934626;29;20228;-76
2023/03/11 16:20:54;;;;;;;3.83;1.57;;;3.60;89.60;;;;;;4938121;29;20210;-76
2023/03/11 16:23:22;;;;;;;1.60;1.50;;;3.60;89.00;;;;;;4934890;29;20192;-76
2023/03/11 16:25:50;;;;;;;2.50;1.30;;;3.60;90.00;;;;;;4938864;29;20186;-76
2023/03/11 16:28:16;;;;;;;2.10;1.30;;;3.70;89.30;;;;;;4938960;29;20257;-76
2023/03/11 16:30:42;;;;;;;3.27;1.30;;;3.70;89.80;;;;;;4938492;29;20273;-76
2023/03/11 16:33:08;;;;;;;2.17;1.30;;;3.70;87.80;;;;;;4937339;29;20194;-76
2023/03/11 16:35:34;;;;;;;5.53;1.50;;;3.60;88.80;;;;;;4938543;29;20170;-76
2023/03/11 16:38:00;;;;;;;3.07;1.40;;;3.50;90.00;;;;;;4937236;29;20206;-76
2023/03/11 16:40:27;;;;;;;4.23;1.60;;;3.50;90.30;;;;;;4937905;29;20171;-76
2023/03/11 16:43:02;;;;;;;2.80;1.57;;;3.50;89.80;;;;;;4937213;29;20178;-76
2023/03/11 16:45:28;;;;;;;2.60;1.40;;;3.40;89.10;;;;;;4937748;29;20276;-76
2023/03/11 16:47:54;;;;;;;3.07;1.50;;;3.40;89.10;;;;;;4937287;29;20286;-76
2023/03/11 16:50:19;;;;;;;5.47;1.70;;;3.30;90.00;;;;;;4938177;29;20185;-76
2023/03/11 16:52:46;;;;;;;5.90;1.60;;;3.20;90.20;;;;;;4937760;29;20206;-76
2023/03/11 16:55:12;;;;;;;2.73;1.50;;;3.20;90.90;;;;;;4938195;29;20602;-76
2023/03/11 16:57:38;;;;;;;5.17;1.87;;;3.10;91.60;;;;;;4936832;29;20218;-76
2023/03/11 17:00:05;;;;;;;5.50;3.23;;;3.10;91.50;;;;;;4936666;29;20190;-76
2023/03/11 17:02:31;;;;;;;4.07;2.40;;;3.10;91.70;;;;;;4937835;29;20229;-76
2023/03/11 17:04:57;;;;;;;4.97;2.00;;;3.10;92.40;;;;;;4937678;29;20265;-76
2023/03/11 17:07:23;;;;;;;2.00;1.50;;;3.10;92.90;;;;;;4936729;29;20244;-77
2023/03/11 17:09:49;;;;;;;4.97;2.17;;;3.00;92.50;;;;;;4936743;29;20182;-76
2023/03/11 17:12:28;;;;;;;4.00;1.70;;;3.10;92.20;;;;;;4936798;29;20265;-77
2023/03/11 17:14:54;;;;;;;2.17;1.40;;;2.90;92.70;;;;;;4937673;29;20254;-78
2023/03/11 17:17:21;;;;;;;3.07;1.43;;;2.90;93.10;;;;;;4937175;29;20302;-78
2023/03/11 17:19:46;;;;;;;2.17;1.40;;;2.80;93.50;;;;;;4937309;29;20202;-78
2023/03/11 17:22:12;;;;;;;4.37;2.60;;;2.80;93.40;;;;;;4937995;29;20185;-80
2023/03/11 17:24:38;;;;;;;4.80;2.40;;;2.70;94.00;;;;;;4937866;29;20206;-77
2023/03/11 17:27:04;;;;;;;6.80;2.63;;;2.60;94.40;;;;;;4936487;29;20194;-77
2023/03/11 17:29:30;;;;;;;4.40;2.80;;;2.60;94.60;;;;;;4937338;29;20186;-78
2023/03/11 17:31:56;;;;;;;4.00;2.33;;;2.60;94.90;;;;;;4936788;29;20315;-78
2023/03/11 17:34:21;;;;;;;4.77;2.40;;;2.60;94.30;;;;;;4936713;29;20194;-78
2023/03/11 17:40:09;;;;;;;4.57;2.70;;;2.50;94.90;;;;;;4937424;29;20174;-78
2023/03/11 17:42:38;;;;;;;4.90;3.07;;;2.50;95.10;;;;;;4936415;29;20187;-78
2023/03/11 17:45:04;;;;;;;7.60;3.97;;;2.50;95.60;;;;;;4937302;29;20183;-77
2023/03/11 17:47:31;;;;;;;4.23;3.10;;;2.60;95.80;;;;;;4936049;29;20209;-77
2023/03/11 17:49:56;;;;;;;5.27;3.10;;;2.60;95.80;;;;;;4936252;29;20237;-77
2023/03/11 17:52:22;;;;;;;10.70;2.50;;;2.70;95.60;;;;;;4936146;29;20179;-77
2023/03/11 17:54:48;;;;;;;6.80;2.37;;;2.70;95.80;;;;;;4934154;29;20646;-77
2023/03/11 17:57:14;;;;;;;6.20;3.07;;;2.60;96.10;;;;;;4935035;29;20205;-77
2023/03/11 17:59:43;;;;;;;2.70;2.37;;;2.50;95.90;;;;;;4935539;29;20222;-77
2023/03/11 18:02:12;;;;;;;4.43;2.07;;;2.50;96.80;;;;;;4935579;29;20210;-77
2023/03/11 18:04:42;;;;;;;4.90;3.73;;;2.40;96.80;;;;;;4936881;29;20183;-77
2023/03/11 18:07:07;;;;;;;5.73;3.23;;;2.30;97.60;;;;;;4937117;29;20197;-77
2023/03/11 18:09:33;;;;;;;4.80;3.43;;;2.20;98.10;;;;;;4937025;29;20182;-77
2023/03/11 18:11:58;;;;;;;6.93;2.63;;;2.10;98.60;;;;;;4936789;29;20292;-77
2023/03/11 18:14:29;;;;;;;5.57;2.30;;;2.10;99.00;;;;;;4936435;29;20194;-77
2023/03/11 18:16:55;;;;;;;9.87;4.50;;;2.10;99.20;;;;;;4936586;29;20205;-77
2023/03/11 18:19:20;;;;;;;11.40;6.97;;;2.00;98.50;;;;;;4935384;29;20206;-76
2023/03/11 18:21:46;;;;;;;14.13;9.97;;;1.80;98.00;;;;;;4936240;29;20244;-76
2023/03/11 18:24:11;;;;;;;13.30;9.60;;;1.80;98.40;;;;;;4935188;29;20255;-76
2023/03/11 18:26:37;;;;;;;18.97;13.33;;;1.70;97.50;;;;;;4936342;29;20213;-76
2023/03/11 18:29:05;;;;;;;20.30;12.50;;;1.70;97.90;;;;;;4934523;29;20265;-76
2023/03/11 18:31:31;;;;;;;20.87;12.80;;;1.70;98.20;;;;;;4936526;29;20630;-76
2023/03/11 18:33:59;;;;;;;10.97;6.80;;;1.50;98.50;;;;;;4936665;29;20193;-76
2023/03/11 18:36:28;;;;;;;10.20;8.27;;;1.50;98.80;;;;;;4935166;29;20206;-76
2023/03/11 18:38:58;;;;;;;7.93;6.80;;;1.50;98.80;;;;;;4935328;29;20206;-76
2023/03/11 18:41:26;;;;;;;10.77;6.60;;;1.40;99.00;;;;;;4935196;29;20234;-76
2023/03/11 18:43:56;;;;;;;9.37;6.57;;;1.30;99.00;;;;;;4935158;29;20181;-76
2023/03/11 18:46:22;;;;;;;9.60;5.57;;;1.20;99.30;;;;;;4935298;29;20241;-76
2023/03/11 18:48:48;;;;;;;8.57;5.30;;;1.20;99.40;;;;;;4936135;29;20274;-76
2023/03/11 18:51:15;;;;;;;9.03;6.07;;;1.20;99.20;;;;;;4935116;29;20206;-76
2023/03/11 18:53:41;;;;;;;7.60;5.90;;;1.10;99.10;;;;;;4935925;29;20265;-76
2023/03/11 18:56:10;;;;;;;5.67;4.07;;;1.10;98.90;;;;;;4935744;29;20308;-76
2023/03/11 18:58:35;;;;;;;5.07;3.53;;;1.00;99.20;;;;;;4934848;29;20209;-76
2023/03/11 19:01:11;;;;;;;5.83;3.10;;;0.90;99.80;;;;;;4935191;29;20182;-76
2023/03/11 19:03:37;;;;;;;9.20;5.23;;;0.90;99.80;;;;;;4935170;29;20228;-76
2023/03/11 19:06:03;;;;;;;7.07;5.80;;;0.80;99.90;;;;;;4935965;29;20273;-76
2023/03/11 19:08:28;;;;;;;7.70;5.73;;;0.80;99.90;;;;;;4935417;29;20193;-76
2023/03/11 19:10:54;;;;;;;6.50;5.20;;;0.90;99.90;;;;;;4934792;29;20178;-76
2023/03/11 19:13:20;;;;;;;7.73;5.40;;;0.80;99.90;;;;;;4935982;29;20178;-76
2023/03/11 19:15:47;;;;;;;20.83;13.00;;;0.70;99.90;;;;;;4934854;29;20222;-76
2023/03/11 19:18:13;;;;;;;19.27;13.23;;;0.70;99.90;;;;;;4934881;29;20689;-76
2023/03/11 19:20:39;;;;;;;18.93;12.00;;;0.80;99.90;;;;;;4934808;29;20171;-76
2023/03/11 19:23:05;;;;;;;28.30;17.67;;;0.70;99.90;;;;;;4936143;29;20270;-76
2023/03/11 19:25:32;;;;;;;17.23;12.10;;;0.70;99.90;;;;;;4937335;29;20167;-76
2023/03/11 19:27:58;;;;;;;27.63;16.40;;;0.60;99.90;;;;;;4939935;29;20206;-76
2023/03/11 19:30:24;;;;;;;21.30;13.43;;;0.60;99.90;;;;;;4938813;29;20210;-76
2023/03/11 19:32:51;;;;;;;100.37;51.83;;;0.60;99.90;;;;;;4939894;29;20217;-76
2023/03/11 19:35:21;;;;;;;50.97;27.83;;;0.60;99.90;;;;;;4939597;29;20221;-76
2023/03/11 19:37:49;;;;;;;57.33;29.07;;;0.70;99.90;;;;;;4938494;29;20580;-76
2023/03/11 19:40:15;;;;;;;27.87;15.87;;;0.80;99.90;;;;;;4939091;29;20209;-76
2023/03/11 19:42:41;;;;;;;12.83;7.50;;;0.80;99.90;;;;;;4939787;29;20186;-76
2023/03/11 19:45:07;;;;;;;8.83;5.87;;;0.70;99.90;;;;;;4939453;29;20181;-76